Time;durP1;ratioP1;P1;durP2;ratioP2;P2;SDS_P1;SDS_P2;PMS_P1;PMS_P2;Temp;Humidity;BMP_temperature;BMP_pressure;BME280_temperature;BME280_humidity;BME280_pressure;Samples;Min_cycle;Max_cycle;Signal;HPM_P1;HPM_P2
2023/06/06 00:01:40;;;;;;;;;;;;;;;;;;5015358;28;19909;-21
2023/06/06 00:04:06;;;;;;;;;;;;;;;;;;5015120;28;20008;-20
2023/06/06 00:06:35;;;;;;;;;;;;;;;;;;5015448;28;19963;-21
2023/06/06 00:09:03;;;;;;;;;;;;;;;;;;5015175;28;19997;-22
2023/06/06 00:11:30;;;;;;;;;;;;;;;;;;5015272;28;19909;-20
2023/06/06 00:13:56;;;;;;;;;;;;;;;;;;5015120;28;19964;-22
2023/06/06 00:16:23;;;;;;;;;;;;;;;;;;5015233;28;19944;-22
2023/06/06 00:18:52;;;;;;;;;;;;;;;;;;5015410;28;19909;-20
2023/06/06 00:21:18;;;;;;;;;;;;;;;;;;5015141;28;20321;-20
2023/06/06 00:23:47;;;;;;;;;;;;;;;;;;5014035;28;20352;-21
2023/06/06 00:26:13;;;;;;;;;;;;;;;;;;5015309;28;19972;-19
2023/06/06 00:28:39;;;;;;;;;;;;;;;;;;5014982;28;20272;-22
2023/06/06 00:31:05;;;;;;;;;;;;;;;;;;5014958;28;19909;-22
2023/06/06 00:33:31;;;;;;;;;;;;;;;;;;5014957;28;19921;-21
2023/06/06 00:35:57;;;;;;;;;;;;;;;;;;5015026;28;20011;-21
2023/06/06 00:38:23;;;;;;;;;;;;;;;;;;5014979;28;19921;-21
2023/06/06 00:40:49;;;;;;;;;;;;;;;;;;5014934;28;19937;-20
2023/06/06 00:43:15;;;;;;;;;;;;;;;;;;5014820;28;20009;-22
2023/06/06 00:45:41;;;;;;;;;;;;;;;;;;5014782;28;20245;-20
2023/06/06 00:48:07;;;;;;;;;;;;;;;;;;5014948;28;19924;-20
2023/06/06 00:50:34;;;;;;;;;;;;;;;;;;5016961;28;19909;-21
2023/06/06 00:53:00;;;;;;;;;;;;;;;;;;5018755;28;20225;-21
2023/06/06 00:55:26;;;;;;;;;;;;;;;;;;5019028;28;19910;-19
2023/06/06 00:57:52;;;;;;;;;;;;;;;;;;5018744;28;19913;-19
2023/06/06 01:00:18;;;;;;;;;;;;;;;;;;5018680;28;19913;-22
2023/06/06 01:02:47;;;;;;;;;;;;;;;;;;5018358;28;20005;-21
2023/06/06 01:05:13;;;;;;;;;;;;;;;;;;5018849;28;19909;-20
2023/06/06 01:07:42;;;;;;;;;;;;;;;;;;5018693;28;19913;-23
2023/06/06 01:10:08;;;;;;;;;;;;;;;;;;5017480;28;19980;-20
2023/06/06 01:12:34;;;;;;;;;;;;;;;;;;5018593;28;19941;-20
2023/06/06 01:15:00;;;;;;;;;;;;;;;;;;5018323;28;20003;-22
2023/06/06 01:17:27;;;;;;;;;;;;;;;;;;5018343;28;19910;-21
2023/06/06 01:19:53;;;;;;;;;;;;;;;;;;5018547;28;20002;-22
2023/06/06 01:22:22;;;;;;;;;;;;;;;;;;5018186;28;19917;-22
2023/06/06 01:24:48;;;;;;;;;;;;;;;;;;5018445;28;19988;-22
2023/06/06 01:27:14;;;;;;;;;;;;;;;;;;5018052;28;20405;-21
2023/06/06 01:29:40;;;;;;;;;;;;;;;;;;5018125;28;20340;-19
2023/06/06 01:32:06;;;;;;;;;;;;;;;;;;5018214;28;19944;-20
2023/06/06 01:34:32;;;;;;;;;;;;;;;;;;5018326;28;20253;-21
2023/06/06 01:36:58;;;;;;;;;;;;;;;;;;5018002;28;20344;-20
2023/06/06 01:39:24;;;;;;;;;;;;;;;;;;5018206;28;20333;-21
2023/06/06 01:41:51;;;;;;;;;;;;;;;;;;5017872;28;20222;-20
2023/06/06 01:44:17;;;;;;;;;;;;;;;;;;5018131;28;19910;-21
2023/06/06 01:46:43;;;;;;;;;;;;;;;;;;5018004;28;19910;-21
2023/06/06 01:49:09;;;;;;;;;;;;;;;;;;5017764;28;19909;-21
2023/06/06 01:51:36;;;;;;;;;;;;;;;;;;5017934;28;19910;-21
2023/06/06 01:54:02;;;;;;;;;;;;;;;;;;5017592;28;19925;-21
2023/06/06 01:56:33;;;;;;;;;;;;;;;;;;5017599;28;20226;-21
2023/06/06 01:58:59;;;;;;;;;;;;;;;;;;5017474;28;19909;-19
2023/06/06 02:01:26;;;;;;;;;;;;;;;;;;5015727;28;19909;-21
2023/06/06 02:03:51;;;;;;;;;;;;;;;;;;5017268;28;20025;-20
2023/06/06 02:06:17;;;;;;;;;;;;;;;;;;5017425;28;20367;-22
2023/06/06 02:08:43;;;;;;;;;;;;;;;;;;5017577;28;20182;-21
2023/06/06 02:11:09;;;;;;;;;;;;;;;;;;5017364;28;20004;-21
2023/06/06 02:13:35;;;;;;;;;;;;;;;;;;5017286;28;20245;-22
2023/06/06 02:16:01;;;;;;;;;;;;;;;;;;5017335;28;20264;-21
2023/06/06 02:18:27;;;;;;;;;;;;;;;;;;5016309;28;20260;-20
2023/06/06 02:20:53;;;;;;;;;;;;;;;;;;5017421;28;19909;-22
2023/06/06 02:23:19;;;;;;;;;;;;;;;;;;5017084;28;19975;-20
2023/06/06 02:25:45;;;;;;;;;;;;;;;;;;5017048;28;19909;-22
2023/06/06 02:28:14;;;;;;;;;;;;;;;;;;5016911;28;19914;-20
2023/06/06 02:30:40;;;;;;;;;;;;;;;;;;5017280;28;19945;-20
2023/06/06 02:33:07;;;;;;;;;;;;;;;;;;5017149;28;19979;-22
2023/06/06 02:35:33;;;;;;;;;;;;;;;;;;5015928;28;20000;-22
2023/06/06 02:37:59;;;;;;;;;;;;;;;;;;5017099;28;19995;-21
2023/06/06 02:40:25;;;;;;;;;;;;;;;;;;5016792;28;19922;-22
2023/06/06 02:42:51;;;;;;;;;;;;;;;;;;5016891;28;19909;-20
2023/06/06 02:45:17;;;;;;;;;;;;;;;;;;5016686;28;20285;-21
2023/06/06 02:47:43;;;;;;;;;;;;;;;;;;5016859;28;20009;-20
2023/06/06 02:50:10;;;;;;;;;;;;;;;;;;5016875;28;19917;-19
2023/06/06 02:52:38;;;;;;;;;;;;;;;;;;5016565;28;19910;-19
2023/06/06 02:55:04;;;;;;;;;;;;;;;;;;5016538;28;19956;-19
2023/06/06 02:57:30;;;;;;;;;;;;;;;;;;5016587;28;20317;-19
2023/06/06 02:59:58;;;;;;;;;;;;;;;;;;5016428;28;19964;-21
2023/06/06 03:02:24;;;;;;;;;;;;;;;;;;5016138;28;20027;-21
2023/06/06 03:04:50;;;;;;;;;;;;;;;;;;5016651;28;19967;-19
2023/06/06 03:07:16;;;;;;;;;;;;;;;;;;5016193;28;19913;-20
2023/06/06 03:09:42;;;;;;;;;;;;;;;;;;5016196;28;19913;-22
2023/06/06 03:12:08;;;;;;;;;;;;;;;;;;5015136;28;20254;-21
2023/06/06 03:14:34;;;;;;;;;;;;;;;;;;5015463;28;20308;-22
2023/06/06 03:17:00;;;;;;;;;;;;;;;;;;5016099;28;19948;-22
2023/06/06 03:19:26;;;;;;;;;;;;;;;;;;5016363;28;20348;-19
2023/06/06 03:21:52;;;;;;;;;;;;;;;;;;5015931;28;20008;-22
2023/06/06 03:24:19;;;;;;;;;;;;;;;;;;5014977;28;19992;-20
2023/06/06 03:26:46;;;;;;;;;;;;;;;;;;5016205;28;19909;-21
2023/06/06 03:29:12;;;;;;;;;;;;;;;;;;5015943;28;19932;-21
2023/06/06 03:31:38;;;;;;;;;;;;;;;;;;5014873;28;19960;-21
2023/06/06 03:34:04;;;;;;;;;;;;;;;;;;5015775;28;19921;-21
2023/06/06 03:36:33;;;;;;;;;;;;;;;;;;5015714;28;19940;-20
2023/06/06 03:38:59;;;;;;;;;;;;;;;;;;5015684;28;19909;-21
2023/06/06 03:41:25;;;;;;;;;;;;;;;;;;5015606;28;20411;-20
2023/06/06 03:43:51;;;;;;;;;;;;;;;;;;5015483;28;19914;-21
2023/06/06 03:46:17;;;;;;;;;;;;;;;;;;5015453;28;20356;-20
2023/06/06 03:48:43;;;;;;;;;;;;;;;;;;5015354;28;20319;-21
2023/06/06 03:51:09;;;;;;;;;;;;;;;;;;5014416;28;19960;-20
2023/06/06 03:53:35;;;;;;;;;;;;;;;;;;5015377;28;19999;-21
2023/06/06 03:56:01;;;;;;;;;;;;;;;;;;5015162;28;19909;-22
2023/06/06 03:58:29;;;;;;;;;;;;;;;;;;5014428;28;20276;-21
2023/06/06 04:00:58;;;;;;;;;;;;;;;;;;5015371;28;19983;-19
2023/06/06 04:03:24;;;;;;;;;;;;;;;;;;5014654;28;19933;-21
2023/06/06 04:05:50;;;;;;;;;;;;;;;;;;5014932;28;20230;-20
2023/06/06 04:08:16;;;;;;;;;;;;;;;;;;5015219;28;19981;-21
2023/06/06 04:10:42;;;;;;;;;;;;;;;;;;5015050;28;19976;-20
2023/06/06 04:13:08;;;;;;;;;;;;;;;;;;5014943;28;20007;-19
2023/06/06 04:15:34;;;;;;;;;;;;;;;;;;5014843;28;19920;-21
2023/06/06 04:18:00;;;;;;;;;;;;;;;;;;5014770;28;19948;-19
2023/06/06 04:20:27;;;;;;;;;;;;;;;;;;5014949;28;19917;-22
2023/06/06 04:22:53;;;;;;;;;;;;;;;;;;5014786;28;20467;-22
2023/06/06 04:25:19;;;;;;;;;;;;;;;;;;5014574;28;20056;-19
2023/06/06 04:27:45;;;;;;;;;;;;;;;;;;5014689;28;19913;-20
2023/06/06 04:30:12;;;;;;;;;;;;;;;;;;5014912;28;19909;-21
2023/06/06 04:32:39;;;;;;;;;;;;;;;;;;5014575;28;19919;-19
2023/06/06 04:35:05;;;;;;;;;;;;;;;;;;5014525;28;19909;-20
2023/06/06 04:37:33;;;;;;;;;;;;;;;;;;5014783;28;19910;-22
2023/06/06 04:40:00;;;;;;;;;;;;;;;;;;5014836;28;20300;-21
2023/06/06 04:42:32;;;;;;;;;;;;;;;;;;5014252;28;20324;-20
2023/06/06 04:44:59;;;;;;;;;;;;;;;;;;5014614;28;19913;-21
2023/06/06 04:47:28;;;;;;;;;;;;;;;;;;5014571;28;20275;-21
2023/06/06 04:49:54;;;;;;;;;;;;;;;;;;5014772;28;19909;-22
2023/06/06 04:52:20;;;;;;;;;;;;;;;;;;5013277;28;19920;-21
2023/06/06 04:54:46;;;;;;;;;;;;;;;;;;5014193;28;20340;-20
2023/06/06 04:57:16;;;;;;;;;;;;;;;;;;5014340;28;19926;-32
2023/06/06 04:59:47;;;;;;;;;;;;;;;;;;5014336;28;19913;-19
2023/06/06 05:02:13;;;;;;;;;;;;;;;;;;5014243;28;20388;-21
2023/06/06 05:04:40;;;;;;;;;;;;;;;;;;5014160;28;19944;-22
2023/06/06 05:07:07;;;;;;;;;;;;;;;;;;5014172;28;19913;-22
2023/06/06 05:09:33;;;;;;;;;;;;;;;;;;5014595;28;20002;-20
2023/06/06 05:11:59;;;;;;;;;;;;;;;;;;5014005;28;19976;-20
2023/06/06 05:14:25;;;;;;;;;;;;;;;;;;5013762;28;20303;-21
2023/06/06 05:16:52;;;;;;;;;;;;;;;;;;5013959;28;19909;-20
2023/06/06 05:19:18;;;;;;;;;;;;;;;;;;5013637;28;19909;-21
2023/06/06 05:21:44;;;;;;;;;;;;;;;;;;5012783;28;20003;-21
2023/06/06 05:24:10;;;;;;;;;;;;;;;;;;5014162;28;19909;-20
2023/06/06 05:26:36;;;;;;;;;;;;;;;;;;5013704;28;20225;-22
2023/06/06 05:29:02;;;;;;;;;;;;;;;;;;5013839;28;19920;-20
2023/06/06 05:31:28;;;;;;;;;;;;;;;;;;5014128;28;19968;-19
2023/06/06 05:33:54;;;;;;;;;;;;;;;;;;5013861;28;19939;-23
2023/06/06 05:36:20;;;;;;;;;;;;;;;;;;5012847;28;19917;-21
2023/06/06 05:38:46;;;;;;;;;;;;;;;;;;5017405;28;19917;-21
2023/06/06 05:41:12;;;;;;;;;;;;;;;;;;5017329;28;19964;-23
2023/06/06 05:43:38;;;;;;;;;;;;;;;;;;5017220;28;19963;-22
2023/06/06 05:46:04;;;;;;;;;;;;;;;;;;5017190;28;20008;-21
2023/06/06 05:48:30;;;;;;;;;;;;;;;;;;5017135;28;20053;-20
2023/06/06 05:50:57;;;;;;;;;;;;;;;;;;5016846;28;20003;-20
2023/06/06 05:53:23;;;;;;;;;;;;;;;;;;5016677;28;20019;-20
2023/06/06 05:55:49;;;;;;;;;;;;;;;;;;5016792;28;19917;-21
2023/06/06 05:58:15;;;;;;;;;;;;;;;;;;5016705;28;20008;-21
2023/06/06 06:00:41;;;;;;;;;;;;;;;;;;5016573;28;19909;-20
2023/06/06 06:03:08;;;;;;;;;;;;;;;;;;5016347;28;19927;-20
2023/06/06 06:05:34;;;;;;;;;;;;;;;;;;5016420;28;19917;-20
2023/06/06 06:08:00;;;;;;;;;;;;;;;;;;5016780;28;19913;-21
2023/06/06 06:10:26;;;;;;;;;;;;;;;;;;5015605;28;20337;-20
2023/06/06 06:12:52;;;;;;;;;;;;;;;;;;5016602;28;19913;-20
2023/06/06 06:15:18;;;;;;;;;;;;;;;;;;5015924;28;19920;-22
2023/06/06 06:17:45;;;;;;;;;;;;;;;;;;5015956;28;19945;-21
2023/06/06 06:20:11;;;;;;;;;;;;;;;;;;5015701;28;19987;-21
2023/06/06 06:22:37;;;;;;;;;;;;;;;;;;5015894;28;19956;-22
2023/06/06 06:25:03;;;;;;;;;;;;;;;;;;5015754;28;19921;-20
2023/06/06 06:27:30;;;;;;;;;;;;;;;;;;5015710;28;19913;-21
2023/06/06 06:29:56;;;;;;;;;;;;;;;;;;5016534;28;19909;-21
2023/06/06 06:32:22;;;;;;;;;;;;;;;;;;5015802;28;20267;-19
2023/06/06 06:34:48;;;;;;;;;;;;;;;;;;5015618;28;19917;-21
2023/06/06 06:37:16;;;;;;;;;;;;;;;;;;5015699;28;19909;-20
2023/06/06 06:39:42;;;;;;;;;;;;;;;;;;5016165;28;19913;-32
2023/06/06 06:42:08;;;;;;;;;;;;;;;;;;5016240;28;20292;-22
2023/06/06 06:44:34;;;;;;;;;;;;;;;;;;5015122;28;19909;-21
2023/06/06 06:47:03;;;;;;;;;;;;;;;;;;5016188;28;19972;-21
2023/06/06 06:49:29;;;;;;;;;;;;;;;;;;5016070;28;19948;-20
2023/06/06 06:51:56;;;;;;;;;;;;;;;;;;5016215;28;19913;-22
2023/06/06 06:54:24;;;;;;;;;;;;;;;;;;5015918;28;19909;-22
2023/06/06 06:56:51;;;;;;;;;;;;;;;;;;5015880;28;19909;-22
2023/06/06 06:59:17;;;;;;;;;;;;;;;;;;5016050;28;20321;-21
2023/06/06 07:01:49;;;;;;;;;;;;;;;;;;5015853;28;19910;-21
2023/06/06 07:04:16;;;;;;;;;;;;;;;;;;5014685;28;19921;-22
2023/06/06 07:06:42;;;;;;;;;;;;;;;;;;5016088;28;19913;-20
2023/06/06 07:09:08;;;;;;;;;;;;;;;;;;5016053;28;19921;-22
2023/06/06 07:11:34;;;;;;;;;;;;;;;;;;5016139;28;19914;-22
2023/06/06 07:14:00;;;;;;;;;;;;;;;;;;5015652;28;19909;-21
2023/06/06 07:16:26;;;;;;;;;;;;;;;;;;5015637;28;20331;-21
2023/06/06 07:18:52;;;;;;;;;;;;;;;;;;5015528;28;19913;-20
2023/06/06 07:21:19;;;;;;;;;;;;;;;;;;5015461;28;19917;-19
2023/06/06 07:23:47;;;;;;;;;;;;;;;;;;5014296;28;19909;-18
2023/06/06 07:26:13;;;;;;;;;;;;;;;;;;5015461;28;20336;-21
2023/06/06 07:28:40;;;;;;;;;;;;;;;;;;5015728;28;19917;-19
2023/06/06 07:31:06;;;;;;;;;;;;;;;;;;5014207;28;20363;-20
2023/06/06 07:33:32;;;;;;;;;;;;;;;;;;5015080;28;19919;-21
2023/06/06 07:35:58;;;;;;;;;;;;;;;;;;5015309;28;19909;-22
2023/06/06 07:38:25;;;;;;;;;;;;;;;;;;5015052;28;19920;-21
2023/06/06 07:40:51;;;;;;;;;;;;;;;;;;5015304;28;19909;-21
2023/06/06 07:43:16;;;;;;;;;;;;;;;;;;5015077;28;19917;-22
2023/06/06 07:45:42;;;;;;;;;;;;;;;;;;5015387;28;19914;-21
2023/06/06 07:48:09;;;;;;;;;;;;;;;;;;5014878;28;20000;-20
2023/06/06 07:50:35;;;;;;;;;;;;;;;;;;5015015;28;19983;-22
2023/06/06 07:53:02;;;;;;;;;;;;;;;;;;5014937;28;20206;-21
2023/06/06 07:55:28;;;;;;;;;;;;;;;;;;5015226;28;19909;-22
2023/06/06 07:57:56;;;;;;;;;;;;;;;;;;5014811;28;20008;-22
2023/06/06 08:00:23;;;;;;;;;;;;;;;;;;5014195;28;19936;-20
2023/06/06 08:02:49;;;;;;;;;;;;;;;;;;5014232;28;19925;-22
2023/06/06 08:05:17;;;;;;;;;;;;;;;;;;5013844;28;19978;-21
2023/06/06 08:07:43;;;;;;;;;;;;;;;;;;5015145;28;19928;-20
2023/06/06 08:10:09;;;;;;;;;;;;;;;;;;5014970;28;20264;-21
2023/06/06 08:12:35;;;;;;;;;;;;;;;;;;5014886;28;19992;-21
2023/06/06 08:15:01;;;;;;;;;;;;;;;;;;5014802;28;20370;-21
2023/06/06 08:17:30;;;;;;;;;;;;;;;;;;5014951;28;19936;-19
2023/06/06 08:19:55;;;;;;;;;;;;;;;;;;5014684;28;19960;-21
2023/06/06 08:22:21;;;;;;;;;;;;;;;;;;5014594;28;19909;-21
2023/06/06 08:24:47;;;;;;;;;;;;;;;;;;5014950;28;19972;-20
2023/06/06 08:27:13;;;;;;;;;;;;;;;;;;5014468;28;20000;-20
2023/06/06 08:29:39;;;;;;;;;;;;;;;;;;5014515;28;20245;-20
2023/06/06 08:32:06;;;;;;;;;;;;;;;;;;5014452;28;19913;-22
2023/06/06 08:34:32;;;;;;;;;;;;;;;;;;5013488;28;19920;-21
2023/06/06 08:36:59;;;;;;;;;;;;;;;;;;5014451;28;20306;-21
2023/06/06 08:39:25;;;;;;;;;;;;;;;;;;5014354;28;19910;-20
2023/06/06 08:41:51;;;;;;;;;;;;;;;;;;5014442;28;19909;-21
2023/06/06 08:44:17;;;;;;;;;;;;;;;;;;5014090;28;19909;-20
2023/06/06 08:46:42;;;;;;;;;;;;;;;;;;5012491;28;19914;-21
2023/06/06 08:49:08;;;;;;;;;;;;;;;;;;5013859;28;20019;-21
2023/06/06 08:51:34;;;;;;;;;;;;;;;;;;5013749;28;19910;-21
2023/06/06 08:54:00;;;;;;;;;;;;;;;;;;5013972;28;19913;-22
2023/06/06 08:56:26;;;;;;;;;;;;;;;;;;5013766;28;19910;-21
2023/06/06 08:58:52;;;;;;;;;;;;;;;;;;5014273;28;19925;-20
2023/06/06 09:01:18;;;;;;;;;;;;;;;;;;5012560;28;20414;-21
2023/06/06 09:03:44;;;;;;;;;;;;;;;;;;5013450;28;19989;-21
2023/06/06 09:06:11;;;;;;;;;;;;;;;;;;5013544;28;19954;-21
2023/06/06 09:08:37;;;;;;;;;;;;;;;;;;5013525;28;19959;-21
2023/06/06 09:11:03;;;;;;;;;;;;;;;;;;5013620;28;19909;-27
2023/06/06 09:13:29;;;;;;;;;;;;;;;;;;5017089;28;19910;-21
2023/06/06 09:15:55;;;;;;;;;;;;;;;;;;5017219;28;19967;-22
2023/06/06 09:18:21;;;;;;;;;;;;;;;;;;5017477;28;19910;-23
2023/06/06 09:20:47;;;;;;;;;;;;;;;;;;5017309;28;20293;-25
2023/06/06 09:23:14;;;;;;;;;;;;;;;;;;5017356;28;20004;-24
2023/06/06 09:25:40;;;;;;;;;;;;;;;;;;5017557;28;19909;-22
2023/06/06 09:28:06;;;;;;;;;;;;;;;;;;5017471;28;19925;-28
2023/06/06 09:30:32;;;;;;;;;;;;;;;;;;5017720;28;19936;-28
2023/06/06 09:32:58;;;;;;;;;;;;;;;;;;5017612;28;19920;-25
2023/06/06 09:35:25;;;;;;;;;;;;;;;;;;5017113;28;19932;-25
2023/06/06 09:37:51;;;;;;;;;;;;;;;;;;5017433;28;19937;-25
2023/06/06 09:40:16;;;;;;;;;;;;;;;;;;5017551;28;19910;-25
2023/06/06 09:42:42;;;;;;;;;;;;;;;;;;5017254;28;19961;-24
2023/06/06 09:45:08;;;;;;;;;;;;;;;;;;5017314;28;19909;-27
2023/06/06 09:47:35;;;;;;;;;;;;;;;;;;5017178;28;19921;-23
2023/06/06 09:50:01;;;;;;;;;;;;;;;;;;5017062;28;19917;-26
2023/06/06 09:52:27;;;;;;;;;;;;;;;;;;5017240;28;19910;-28
2023/06/06 09:54:53;;;;;;;;;;;;;;;;;;5017362;28;19921;-27
2023/06/06 09:57:19;;;;;;;;;;;;;;;;;;5017075;28;20031;-28
2023/06/06 09:59:46;;;;;;;;;;;;;;;;;;5017362;28;20296;-23
2023/06/06 10:02:12;;;;;;;;;;;;;;;;;;5016932;28;19952;-26
2023/06/06 10:04:39;;;;;;;;;;;;;;;;;;5017004;28;20047;-28
2023/06/06 10:07:05;;;;;;;;;;;;;;;;;;5017178;28;19992;-25
2023/06/06 10:09:32;;;;;;;;;;;;;;;;;;5017080;28;19909;-25
2023/06/06 10:11:59;;;;;;;;;;;;;;;;;;5016919;28;19909;-26
2023/06/06 10:14:26;;;;;;;;;;;;;;;;;;5017018;28;19929;-24
2023/06/06 10:16:52;;;;;;;;;;;;;;;;;;5017093;28;19936;-27
2023/06/06 10:19:18;;;;;;;;;;;;;;;;;;5017015;28;19909;-25
2023/06/06 10:21:44;;;;;;;;;;;;;;;;;;5015644;28;20205;-27
2023/06/06 10:24:10;;;;;;;;;;;;;;;;;;5015070;28;20009;-27
2023/06/06 10:26:36;;;;;;;;;;;;;;;;;;5016835;28;20285;-23
2023/06/06 10:29:02;;;;;;;;;;;;;;;;;;5016450;28;19961;-28
2023/06/06 10:31:30;;;;;;;;;;;;;;;;;;5016295;28;20415;-25
2023/06/06 10:33:56;;;;;;;;;;;;;;;;;;5016195;28;20004;-28
2023/06/06 10:36:22;;;;;;;;;;;;;;;;;;5016496;28;20364;-29
2023/06/06 10:38:48;;;;;;;;;;;;;;;;;;5016382;28;19914;-29
2023/06/06 10:41:17;;;;;;;;;;;;;;;;;;5016025;28;19920;-23
2023/06/06 10:43:46;;;;;;;;;;;;;;;;;;5014949;28;20248;-22
2023/06/06 10:46:12;;;;;;;;;;;;;;;;;;5015895;28;19996;-24
2023/06/06 10:48:38;;;;;;;;;;;;;;;;;;5016342;28;20087;-24
2023/06/06 10:51:04;;;;;;;;;;;;;;;;;;5015805;28;20272;-24
2023/06/06 10:53:30;;;;;;;;;;;;;;;;;;5015551;28;19964;-26
2023/06/06 10:55:56;;;;;;;;;;;;;;;;;;5015663;28;19913;-23
2023/06/06 10:58:24;;;;;;;;;;;;;;;;;;5015296;28;19963;-27
2023/06/06 11:00:50;;;;;;;;;;;;;;;;;;5015496;28;20261;-25
2023/06/06 11:03:16;;;;;;;;;;;;;;;;;;5014981;28;19921;-19
2023/06/06 11:05:42;;;;;;;;;;;;;;;;;;5015473;28;19949;-27
2023/06/06 11:08:08;;;;;;;;;;;;;;;;;;5015180;28;20311;-26
2023/06/06 11:10:34;;;;;;;;;;;;;;;;;;5015121;28;19910;-22
2023/06/06 11:13:00;;;;;;;;;;;;;;;;;;5015016;28;19913;-22
2023/06/06 11:15:27;;;;;;;;;;;;;;;;;;5015105;28;19909;-27
2023/06/06 11:17:53;;;;;;;;;;;;;;;;;;5013997;28;19928;-29
2023/06/06 11:20:19;;;;;;;;;;;;;;;;;;5014978;28;19996;-28
2023/06/06 11:22:45;;;;;;;;;;;;;;;;;;5015623;28;19936;-26
2023/06/06 11:25:11;;;;;;;;;;;;;;;;;;5015482;28;20329;-28
2023/06/06 11:27:39;;;;;;;;;;;;;;;;;;5015052;28;20136;-24
2023/06/06 11:30:06;;;;;;;;;;;;;;;;;;5015769;28;19964;-26
2023/06/06 11:32:32;;;;;;;;;;;;;;;;;;5015268;28;20395;-25
2023/06/06 11:34:58;;;;;;;;;;;;;;;;;;5014574;28;19913;-22
2023/06/06 11:37:24;;;;;;;;;;;;;;;;;;5015163;28;19910;-23
2023/06/06 11:39:50;;;;;;;;;;;;;;;;;;5015062;28;19909;-25
2023/06/06 11:42:16;;;;;;;;;;;;;;;;;;5015325;28;19992;-27
2023/06/06 11:44:42;;;;;;;;;;;;;;;;;;5015049;28;20160;-26
2023/06/06 11:47:08;;;;;;;;;;;;;;;;;;5015026;28;20007;-22
2023/06/06 11:49:34;;;;;;;;;;;;;;;;;;5014952;28;20370;-25
2023/06/06 11:52:00;;;;;;;;;;;;;;;;;;5015173;28;20000;-27
2023/06/06 11:54:27;;;;;;;;;;;;;;;;;;5015219;28;19909;-23
2023/06/06 11:56:53;;;;;;;;;;;;;;;;;;5014947;28;19913;-30
2023/06/06 11:59:19;;;;;;;;;;;;;;;;;;5015158;28;20008;-27
2023/06/06 12:01:46;;;;;;;;;;;;;;;;;;5015033;28;19909;-23
2023/06/06 12:04:12;;;;;;;;;;;;;;;;;;5015169;28;20000;-25
2023/06/06 12:06:38;;;;;;;;;;;;;;;;;;5014900;28;19994;-28
2023/06/06 12:09:04;;;;;;;;;;;;;;;;;;5014732;28;20289;-21
2023/06/06 12:11:31;;;;;;;;;;;;;;;;;;5014904;28;19993;-30
2023/06/06 12:13:57;;;;;;;;;;;;;;;;;;5014872;28;20301;-25
2023/06/06 12:16:23;;;;;;;;;;;;;;;;;;5014859;28;19913;-29
2023/06/06 12:18:49;;;;;;;;;;;;;;;;;;5013787;28;19910;-27
2023/06/06 12:21:18;;;;;;;;;;;;;;;;;;5014690;28;20340;-25
2023/06/06 12:23:44;;;;;;;;;;;;;;;;;;5014871;28;20300;-25
2023/06/06 12:26:13;;;;;;;;;;;;;;;;;;5014608;28;19909;-21
2023/06/06 12:28:45;;;;;;;;;;;;;;;;;;5014806;28;19927;-22
2023/06/06 12:31:11;;;;;;;;;;;;;;;;;;5014580;28;20000;-25
2023/06/06 12:33:37;;;;;;;;;;;;;;;;;;5014643;28;19968;-22
2023/06/06 12:36:03;;;;;;;;;;;;;;;;;;5014142;28;19924;-26
2023/06/06 12:38:29;;;;;;;;;;;;;;;;;;5014065;28;19909;-29
2023/06/06 12:40:55;;;;;;;;;;;;;;;;;;5014079;28;19963;-25
2023/06/06 12:43:21;;;;;;;;;;;;;;;;;;5014010;28;19964;-24
2023/06/06 12:45:47;;;;;;;;;;;;;;;;;;5014916;28;19909;-23
2023/06/06 12:48:15;;;;;;;;;;;;;;;;;;5018278;28;19917;-26
2023/06/06 12:50:43;;;;;;;;;;;;;;;;;;5018328;28;19909;-28
2023/06/06 12:53:12;;;;;;;;;;;;;;;;;;5018297;28;19910;-28
2023/06/06 12:55:38;;;;;;;;;;;;;;;;;;5018033;28;19949;-24
2023/06/06 12:58:04;;;;;;;;;;;;;;;;;;5018113;28;19921;-25
2023/06/06 13:00:30;;;;;;;;;;;;;;;;;;5018344;28;19932;-24
2023/06/06 13:02:56;;;;;;;;;;;;;;;;;;5016765;28;19952;-26
2023/06/06 13:05:22;;;;;;;;;;;;;;;;;;5018450;28;19909;-23
2023/06/06 13:07:48;;;;;;;;;;;;;;;;;;5017857;28;20329;-25
2023/06/06 13:10:14;;;;;;;;;;;;;;;;;;5018003;28;19917;-26
2023/06/06 13:12:40;;;;;;;;;;;;;;;;;;5017946;28;19909;-26
2023/06/06 13:15:06;;;;;;;;;;;;;;;;;;5017754;28;20250;-29
2023/06/06 13:17:32;;;;;;;;;;;;;;;;;;5018061;28;19914;-23
2023/06/06 13:19:58;;;;;;;;;;;;;;;;;;5017874;28;19936;-24
2023/06/06 13:22:24;;;;;;;;;;;;;;;;;;5017637;28;19910;-29
2023/06/06 13:24:50;;;;;;;;;;;;;;;;;;5017691;28;20004;-22
2023/06/06 13:27:16;;;;;;;;;;;;;;;;;;5016579;28;19914;-22
2023/06/06 13:29:42;;;;;;;;;;;;;;;;;;5018063;28;19972;-23
2023/06/06 13:32:08;;;;;;;;;;;;;;;;;;5017813;28;19910;-28
2023/06/06 13:34:34;;;;;;;;;;;;;;;;;;5016714;28;20387;-33
2023/06/06 13:37:01;;;;;;;;;;;;;;;;;;5016795;28;19910;-24
2023/06/06 13:39:27;;;;;;;;;;;;;;;;;;5017528;28;19921;-26
2023/06/06 13:41:53;;;;;;;;;;;;;;;;;;5017704;28;19913;-26
2023/06/06 13:44:19;;;;;;;;;;;;;;;;;;5017564;28;19910;-21
2023/06/06 13:46:45;;;;;;;;;;;;;;;;;;5017758;28;19987;-26
2023/06/06 13:49:16;;;;;;;;;;;;;;;;;;5017689;28;20008;-23
2023/06/06 13:51:42;;;;;;;;;;;;;;;;;;5017270;28;19913;-19
2023/06/06 13:54:08;;;;;;;;;;;;;;;;;;5017270;28;19909;-22
2023/06/06 13:56:35;;;;;;;;;;;;;;;;;;5017647;28;19969;-28
2023/06/06 13:59:01;;;;;;;;;;;;;;;;;;5016339;28;19913;-25
2023/06/06 14:01:29;;;;;;;;;;;;;;;;;;5017323;28;20175;-25
2023/06/06 14:03:55;;;;;;;;;;;;;;;;;;5017038;28;20273;-23
2023/06/06 14:06:21;;;;;;;;;;;;;;;;;;5017284;28;19933;-25
2023/06/06 14:08:47;;;;;;;;;;;;;;;;;;5016947;28;19917;-24
2023/06/06 14:11:13;;;;;;;;;;;;;;;;;;5016953;28;20328;-21
2023/06/06 14:13:39;;;;;;;;;;;;;;;;;;5015805;28;19913;-27
2023/06/06 14:16:05;;;;;;;;;;;;;;;;;;5017065;28;20307;-25
2023/06/06 14:18:31;;;;;;;;;;;;;;;;;;5016847;28;20443;-23
2023/06/06 14:21:56;;;;;;;;;;;;;;;;;;5017290;28;19952;-26
2023/06/06 14:23:47;;;;;;;;;;;;;;;;;;5013674;28;19998;-25
2023/06/06 14:26:13;;;;;;;;;;;;;;;;;;5016559;28;19925;-23
2023/06/06 14:28:40;;;;;;;;;;;;;;;;;;5016488;28;19963;-22
2023/06/06 14:31:06;;;;;;;;;;;;;;;;;;5016704;28;20245;-23
2023/06/06 14:33:32;;;;;;;;;;;;;;;;;;5016504;28;19924;-25
2023/06/06 14:35:58;;;;;;;;;;;;;;;;;;5016558;28;20364;-24
2023/06/06 14:38:24;;;;;;;;;;;;;;;;;;5016575;28;20011;-26
2023/06/06 14:40:50;;;;;;;;;;;;;;;;;;5016522;28;19909;-28
2023/06/06 14:43:16;;;;;;;;;;;;;;;;;;5016419;28;20000;-23
2023/06/06 14:45:42;;;;;;;;;;;;;;;;;;5016137;28;19909;-24
2023/06/06 14:48:08;;;;;;;;;;;;;;;;;;5016273;28;19920;-20
2023/06/06 14:50:34;;;;;;;;;;;;;;;;;;5016356;28;19976;-26
2023/06/06 14:53:00;;;;;;;;;;;;;;;;;;5015997;28;20004;-23
2023/06/06 14:55:26;;;;;;;;;;;;;;;;;;5016835;28;19978;-27
2023/06/06 14:57:52;;;;;;;;;;;;;;;;;;5016002;28;19981;-26
2023/06/06 15:00:18;;;;;;;;;;;;;;;;;;5015850;28;19941;-22
2023/06/06 15:02:44;;;;;;;;;;;;;;;;;;5014638;28;19920;-27
2023/06/06 15:05:10;;;;;;;;;;;;;;;;;;5016424;28;20321;-25
2023/06/06 15:07:36;;;;;;;;;;;;;;;;;;5015896;28;19976;-27
2023/06/06 15:10:03;;;;;;;;;;;;;;;;;;5014509;28;19914;-22
2023/06/06 15:12:29;;;;;;;;;;;;;;;;;;5014823;28;20004;-25
2023/06/06 15:14:55;;;;;;;;;;;;;;;;;;5014791;28;19965;-26
2023/06/06 15:17:21;;;;;;;;;;;;;;;;;;5014785;28;19920;-28
2023/06/06 15:19:47;;;;;;;;;;;;;;;;;;5015303;28;19917;-25
2023/06/06 15:22:15;;;;;;;;;;;;;;;;;;5014780;28;19956;-26
2023/06/06 15:24:41;;;;;;;;;;;;;;;;;;5014654;28;19916;-28
2023/06/06 15:27:07;;;;;;;;;;;;;;;;;;5014623;28;20002;-26
2023/06/06 15:29:42;;;;;;;;;;;;;;;;;;5014653;28;19921;-25
2023/06/06 15:32:08;;;;;;;;;;;;;;;;;;5014749;28;19996;-29
2023/06/06 15:34:35;;;;;;;;;;;;;;;;;;5014621;28;20367;-24
2023/06/06 15:37:01;;;;;;;;;;;;;;;;;;5014952;28;19922;-27
2023/06/06 15:39:27;;;;;;;;;;;;;;;;;;5015268;28;19913;-23
2023/06/06 15:41:53;;;;;;;;;;;;;;;;;;5015518;28;20004;-25
2023/06/06 15:44:19;;;;;;;;;;;;;;;;;;5015764;28;19916;-30
2023/06/06 15:46:44;;;;;;;;;;;;;;;;;;5015505;28;20396;-21
2023/06/06 15:49:11;;;;;;;;;;;;;;;;;;5015381;28;20260;-25
2023/06/06 15:51:36;;;;;;;;;;;;;;;;;;5015258;28;20048;-29
2023/06/06 15:54:02;;;;;;;;;;;;;;;;;;5015284;28;19971;-30
2023/06/06 15:56:28;;;;;;;;;;;;;;;;;;5015108;28;19910;-23
2023/06/06 15:58:54;;;;;;;;;;;;;;;;;;5015562;28;19992;-27
2023/06/06 16:01:20;;;;;;;;;;;;;;;;;;5015642;28;19910;-22
2023/06/06 16:03:46;;;;;;;;;;;;;;;;;;5015035;28;19940;-23
2023/06/06 16:06:12;;;;;;;;;;;;;;;;;;5015207;28;19944;-27
2023/06/06 16:08:38;;;;;;;;;;;;;;;;;;5015171;28;19917;-27
2023/06/06 16:11:04;;;;;;;;;;;;;;;;;;5015003;28;20268;-23
2023/06/06 16:13:31;;;;;;;;;;;;;;;;;;5015189;28;20292;-28
2023/06/06 16:15:57;;;;;;;;;;;;;;;;;;5015061;28;19964;-32
2023/06/06 16:18:25;;;;;;;;;;;;;;;;;;5014936;28;20267;-29
2023/06/06 16:20:51;;;;;;;;;;;;;;;;;;5014407;28;19910;-29
2023/06/06 16:23:17;;;;;;;;;;;;;;;;;;5014980;28;20059;-23
2023/06/06 16:25:44;;;;;;;;;;;;;;;;;;5014823;28;19913;-25
2023/06/06 16:28:11;;;;;;;;;;;;;;;;;;5014781;28;19913;-22
2023/06/06 16:30:37;;;;;;;;;;;;;;;;;;5014723;28;19913;-23
2023/06/06 16:33:03;;;;;;;;;;;;;;;;;;5014743;28;20317;-25
2023/06/06 16:35:29;;;;;;;;;;;;;;;;;;5014567;28;20316;-25
2023/06/06 16:37:55;;;;;;;;;;;;;;;;;;5013623;28;20000;-24
2023/06/06 16:40:21;;;;;;;;;;;;;;;;;;5014658;28;19963;-22